Terminal Aerodrome Forecast
Issued by NWS Sterling, VA

Current Version | Previous Version | Graphics & Text | Print | Product List | Glossary On
Versions: 1 2 3 4 5 6 7 8 9 10 11 12 13 14 15 16 17 18 19 20 21 22 23 24 25 26 27 28 29
000
FTUS41 KLWX 300241 AAA
TAFDCA
TAF AMD
KDCA 300241Z 3003/3024 17009KT P6SM SCT200 WS020/19040KT
     FM300500 19008KT P6SM OVC090 WS020/22040KT
     FM300900 20009KT P6SM -RA OVC035
     FM301100 20010KT P6SM OVC050
     FM301300 21012KT P6SM BKN050
     FM301700 27014G25KT P6SM SCT050=

USA.gov is the U.S. government's official web portal to all federal, state and local government web resources and services.